createdAt,value
2023-05-02T00:01:30.995Z,1011.91
2023-05-02T00:07:51.027Z,1011.96
2023-05-02T00:14:14.003Z,1011.96
2023-05-02T00:20:34.004Z,1012
2023-05-02T00:26:56.993Z,1011.95
2023-05-02T00:33:17.021Z,1012.02
2023-05-02T00:39:39.971Z,1011.98
2023-05-02T00:46:00.073Z,1012.02
2023-05-02T00:52:23.015Z,1012.08
2023-05-02T00:58:43.005Z,1012.14
2023-05-02T01:05:05.986Z,1012.16
2023-05-02T01:11:26.099Z,1012.18
2023-05-02T01:17:49.026Z,1012.22
2023-05-02T01:24:08.994Z,1012.3
2023-05-02T01:30:32.000Z,1012.42
2023-05-02T01:36:51.988Z,1012.47
2023-05-02T01:43:15.014Z,1012.55
2023-05-02T01:49:35.118Z,1012.59
2023-05-02T01:55:58.039Z,1012.61
2023-05-02T02:02:17.995Z,1012.71
2023-05-02T02:08:41.030Z,1012.81
2023-05-02T02:15:00.990Z,1012.85
2023-05-02T02:21:24.010Z,1012.89
2023-05-02T02:27:44.071Z,1012.96
2023-05-02T02:34:06.997Z,1013.02
2023-05-02T02:40:26.978Z,1013.21
2023-05-02T02:46:50.059Z,1013.25
2023-05-02T02:53:09.970Z,1013.3
2023-05-02T02:59:32.991Z,1013.38
2023-05-02T03:05:52.992Z,1013.44
2023-05-02T03:12:15.989Z,1013.54
2023-05-02T03:18:35.972Z,1013.62
2023-05-02T03:40:49.008Z,1013.79
2023-05-02T03:47:12.020Z,1013.77
2023-05-02T03:53:31.980Z,1013.79
2023-05-02T03:59:55.019Z,1013.81
2023-05-02T04:06:15.033Z,1013.83
2023-05-02T04:12:37.993Z,1013.87
2023-05-02T04:18:58.186Z,1013.95
2023-05-02T04:25:21.014Z,1014.01
2023-05-02T04:31:40.988Z,1014.09
2023-05-02T04:38:04.128Z,1014.17
2023-05-02T04:44:23.990Z,1014.21
2023-05-02T04:50:47.016Z,1014.28
2023-05-02T04:57:06.995Z,1014.4
2023-05-02T05:03:30.106Z,1014.48
2023-05-02T05:09:51.271Z,1014.52
2023-05-02T05:16:13.085Z,1014.64
2023-05-02T05:22:33.016Z,1014.73
2023-05-02T05:28:55.979Z,1014.79
2023-05-02T05:35:16.012Z,1014.79
2023-05-02T05:41:39.027Z,1014.83
2023-05-02T05:47:59.036Z,1014.93
2023-05-02T05:54:22.027Z,1015.03
2023-05-02T06:00:41.992Z,1015.13
2023-05-02T06:07:05.045Z,1015.22
2023-05-02T06:13:25.020Z,1015.32
2023-05-02T06:19:48.020Z,1015.34
2023-05-02T06:26:08.013Z,1015.4
2023-05-02T06:32:31.095Z,1015.46
2023-05-02T06:38:51.013Z,1015.54
2023-05-02T06:45:13.991Z,1015.65
2023-05-02T06:51:34.031Z,1015.82
2023-05-02T06:57:57.014Z,1015.9
2023-05-02T07:04:16.993Z,1015.96
2023-05-02T07:10:40.015Z,1016.01
2023-05-02T07:17:00.105Z,1016.05
2023-05-02T07:23:22.993Z,1016.17
2023-05-02T07:29:43.003Z,1016.21
2023-05-02T07:36:06.004Z,1016.29
2023-05-02T07:42:26.006Z,1016.37
2023-05-02T07:48:49.010Z,1016.41
2023-05-02T07:55:08.986Z,1016.47
2023-05-02T08:01:31.986Z,1016.5
2023-05-02T08:07:52.005Z,1016.54
2023-05-02T08:14:15.082Z,1016.56
2023-05-02T08:20:35.068Z,1016.66
2023-05-02T08:26:58.034Z,1016.76
2023-05-02T08:33:18.013Z,1016.86
2023-05-02T08:39:41.006Z,1016.9
2023-05-02T08:56:24.215Z,1017.15
2023-05-02T09:02:47.356Z,1017.21
2023-05-02T09:09:08.886Z,1017.29
2023-05-02T09:15:33.016Z,1017.34
2023-05-02T09:21:53.140Z,1017.4
2023-05-02T09:28:15.981Z,1017.46
2023-05-02T09:34:36.052Z,1017.5
2023-05-02T09:40:59.306Z,1017.58
2023-05-02T09:47:18.975Z,1017.62
2023-05-02T09:53:42.025Z,1017.62
2023-05-02T10:00:01.980Z,1017.7
2023-05-02T10:06:25.014Z,1017.74
2023-05-02T10:12:45.058Z,1017.8
2023-05-02T10:19:07.982Z,1017.95
2023-05-02T10:25:28.013Z,1018.03
2023-05-02T10:31:51.074Z,1018.13
2023-05-02T10:38:11.004Z,1018.13
2023-05-02T10:44:33.997Z,1018.17
2023-05-02T10:50:54.036Z,1018.19
2023-05-02T10:57:16.995Z,1018.17
2023-05-02T11:03:37.046Z,1018.17
2023-05-02T11:10:00.017Z,1018.15
2023-05-02T11:16:20.014Z,1018.15
2023-05-02T11:22:42.992Z,1018.17
2023-05-02T11:29:03.028Z,1018.21
2023-05-02T11:35:25.995Z,1018.19
2023-05-02T11:41:46.005Z,1018.21
2023-05-02T11:48:09.090Z,1018.17
2023-05-02T11:54:28.983Z,1018.21
2023-05-02T12:00:52.013Z,1018.21
2023-05-02T12:07:12.327Z,1018.25
2023-05-02T12:13:35.029Z,1018.35
2023-05-02T12:19:54.979Z,1018.39
2023-05-02T12:26:18.112Z,1018.43
2023-05-02T12:32:38.003Z,1018.41
2023-05-02T12:39:00.988Z,1018.51
2023-05-02T12:45:21.017Z,1018.55
2023-05-02T12:51:44.019Z,1018.59
2023-05-02T12:58:04.001Z,1018.63
2023-05-02T13:04:27.020Z,1018.69
2023-05-02T13:10:46.988Z,1018.69
2023-05-02T13:17:10.257Z,1018.73
2023-05-02T13:23:30.011Z,1018.71
2023-05-02T13:29:52.992Z,1018.71
2023-05-02T13:36:12.977Z,1018.74
2023-05-02T13:42:36.019Z,1018.78
2023-05-02T13:48:56.009Z,1018.78
2023-05-02T13:55:18.990Z,1018.8
2023-05-02T14:18:23.524Z,1018.86
2023-05-02T14:24:42.986Z,1018.86
2023-05-02T14:31:06.031Z,1018.92
2023-05-02T14:37:26.041Z,1019.02
2023-05-02T14:43:48.978Z,1018.92
2023-05-02T14:50:09.010Z,1018.96
2023-05-02T14:56:32.018Z,1018.94
2023-05-02T15:02:52.091Z,1018.94
2023-05-02T15:09:14.992Z,1018.86
2023-05-02T15:15:35.039Z,1018.84
2023-05-02T15:21:57.995Z,1018.82
2023-05-02T15:28:17.984Z,1018.8
2023-05-02T15:34:41.026Z,1018.84
2023-05-02T15:41:01.001Z,1018.92
2023-05-02T15:47:24.052Z,1018.96
2023-05-02T15:53:44.016Z,1018.94
2023-05-02T16:00:07.055Z,1018.98
2023-05-02T16:06:27.084Z,1018.96
2023-05-02T16:12:50.003Z,1018.96
2023-05-02T16:19:09.978Z,1019
2023-05-02T16:25:32.991Z,1019
2023-05-02T16:31:53.072Z,1019.04
2023-05-02T16:38:16.025Z,1019.04
2023-05-02T16:44:35.985Z,1019.04
2023-05-02T16:50:59.069Z,1019.04
2023-05-02T16:57:18.985Z,1019.13
2023-05-02T17:03:42.040Z,1019.12
2023-05-02T17:10:02.205Z,1019.13
2023-05-02T17:16:24.986Z,1019.17
2023-05-02T17:22:44.993Z,1019.15
2023-05-02T17:29:08.022Z,1019.15
2023-05-02T17:35:27.982Z,1019.15
2023-05-02T17:41:50.987Z,1019.17
2023-05-02T17:48:11.063Z,1019.19
2023-05-02T17:54:34.011Z,1019.19
2023-05-02T18:00:53.988Z,1019.21
2023-05-02T18:07:17.008Z,1019.25
2023-05-02T18:13:37.713Z,1019.29
2023-05-02T18:20:00.427Z,1019.33
2023-05-02T18:26:20.025Z,1019.33
2023-05-02T18:32:43.056Z,1019.35
2023-05-02T18:39:02.980Z,1019.35
2023-05-02T18:45:26.022Z,1019.39
2023-05-02T18:51:45.982Z,1019.43
2023-05-02T18:58:09.024Z,1019.43
2023-05-02T19:04:29.024Z,1019.47
2023-05-02T19:10:51.986Z,1019.49
2023-05-02T19:17:12.011Z,1019.57
2023-05-02T19:23:35.015Z,1019.66
2023-05-02T19:29:54.980Z,1019.76
2023-05-02T19:52:07.030Z,1020.02
2023-05-02T19:58:29.978Z,1020.09
2023-05-02T20:04:50.030Z,1020.15
2023-05-02T20:11:13.003Z,1020.17
2023-05-02T20:17:32.994Z,1020.19
2023-05-02T20:23:55.979Z,1020.25
2023-05-02T20:30:16.012Z,1020.29
2023-05-02T20:36:38.979Z,1020.39
2023-05-02T20:42:58.960Z,1020.43
2023-05-02T20:49:22.055Z,1020.45
2023-05-02T20:55:41.983Z,1020.53
2023-05-02T21:02:05.109Z,1020.54
2023-05-02T21:08:25.035Z,1020.54
2023-05-02T21:14:47.988Z,1020.58
2023-05-02T21:21:07.972Z,1020.64
2023-05-02T21:27:31.089Z,1020.68
2023-05-02T21:33:50.985Z,1020.7
2023-05-02T21:40:14.019Z,1020.76
2023-05-02T21:46:34.050Z,1020.8
2023-05-02T21:52:56.983Z,1020.82
2023-05-02T21:59:17.011Z,1020.84
2023-05-02T22:22:15.037Z,1020.96
2023-05-02T22:28:34.975Z,1021.04
2023-05-02T22:34:57.999Z,1021.04
2023-05-02T22:41:18.016Z,1021.12
2023-05-02T22:47:41.012Z,1021.12
2023-05-02T22:54:01.000Z,1021.2
2023-05-02T23:00:24.014Z,1021.18
2023-05-02T23:06:43.999Z,1021.3
2023-05-02T23:13:07.008Z,1021.26
2023-05-02T23:19:26.999Z,1021.22
2023-05-02T23:25:50.002Z,1021.16
2023-05-02T23:32:10.069Z,1021.12
2023-05-02T23:38:33.045Z,1021.1
2023-05-02T23:44:52.981Z,1021.14
2023-05-02T23:51:16.014Z,1021.1
2023-05-02T23:57:36.038Z,1021.08
